sensor_id;sensor_type;location;lat;lon;timestamp;pressure;altitude;pressure_sealevel;temperature;humidity
54592;BME280;40488;48.558;18.150;2022-09-29T00:01:22;98112.81;;;13.84;91.03
54592;BME280;40488;48.558;18.150;2022-09-29T00:03:52;98113.81;;;13.80;90.59
54592;BME280;40488;48.558;18.150;2022-09-29T00:06:20;98112.06;;;13.82;90.84
54592;BME280;40488;48.558;18.150;2022-09-29T00:08:49;98101.16;;;13.77;90.72
54592;BME280;40488;48.558;18.150;2022-09-29T00:11:19;98105.34;;;13.78;90.90
54592;BME280;40488;48.558;18.150;2022-09-29T00:13:48;98113.97;;;13.77;90.95
54592;BME280;40488;48.558;18.150;2022-09-29T00:16:17;98122.53;;;13.76;90.53
54592;BME280;40488;48.558;18.150;2022-09-29T00:18:46;98117.47;;;13.74;90.91
54592;BME280;40488;48.558;18.150;2022-09-29T00:21:17;98123.44;;;13.75;90.83
54592;BME280;40488;48.558;18.150;2022-09-29T00:23:47;98112.38;;;13.73;90.63
54592;BME280;40488;48.558;18.150;2022-09-29T00:26:19;98113.22;;;13.73;90.87
54592;BME280;40488;48.558;18.150;2022-09-29T00:28:50;98117.50;;;13.73;90.46
54592;BME280;40488;48.558;18.150;2022-09-29T00:31:20;98107.25;;;13.73;90.68
54592;BME280;40488;48.558;18.150;2022-09-29T00:33:49;98082.53;;;13.72;90.79
54592;BME280;40488;48.558;18.150;2022-09-29T00:36:20;98083.53;;;13.68;90.80
54592;BME280;40488;48.558;18.150;2022-09-29T00:38:50;98087.22;;;13.61;90.30
54592;BME280;40488;48.558;18.150;2022-09-29T00:41:24;98085.69;;;13.57;90.23
54592;BME280;40488;48.558;18.150;2022-09-29T00:43:56;98094.38;;;13.53;90.16
54592;BME280;40488;48.558;18.150;2022-09-29T00:46:31;98100.50;;;13.49;90.12
54592;BME280;40488;48.558;18.150;2022-09-29T00:49:05;98094.75;;;13.43;90.14
54592;BME280;40488;48.558;18.150;2022-09-29T00:51:37;98093.94;;;13.41;89.52
54592;BME280;40488;48.558;18.150;2022-09-29T00:54:08;98096.69;;;13.37;88.73
54592;BME280;40488;48.558;18.150;2022-09-29T00:56:39;98099.31;;;13.35;88.37
54592;BME280;40488;48.558;18.150;2022-09-29T00:59:12;98096.97;;;13.29;86.99
54592;BME280;40488;48.558;18.150;2022-09-29T01:01:42;98104.81;;;13.25;85.97
54592;BME280;40488;48.558;18.150;2022-09-29T01:04:13;98110.00;;;13.23;85.23
54592;BME280;40488;48.558;18.150;2022-09-29T01:06:46;98106.72;;;13.20;84.29
54592;BME280;40488;48.558;18.150;2022-09-29T01:09:18;98112.78;;;13.17;83.49
54592;BME280;40488;48.558;18.150;2022-09-29T01:11:49;98110.28;;;13.16;82.47
54592;BME280;40488;48.558;18.150;2022-09-29T01:14:19;98106.34;;;13.07;81.83
54592;BME280;40488;48.558;18.150;2022-09-29T01:16:49;98110.63;;;13.05;80.66
54592;BME280;40488;48.558;18.150;2022-09-29T01:19:21;98121.88;;;13.01;80.12
54592;BME280;40488;48.558;18.150;2022-09-29T01:22:02;98121.88;;;13.01;79.17
54592;BME280;40488;48.558;18.150;2022-09-29T01:24:53;98116.06;;;12.96;78.70
54592;BME280;40488;48.558;18.150;2022-09-29T01:27:37;98128.09;;;12.94;78.34
54592;BME280;40488;48.558;18.150;2022-09-29T01:30:13;98124.00;;;12.90;77.94
54592;BME280;40488;48.558;18.150;2022-09-29T01:35:51;98115.63;;;12.85;77.32
54592;BME280;40488;48.558;18.150;2022-09-29T01:38:49;98122.63;;;12.80;77.12
54592;BME280;40488;48.558;18.150;2022-09-29T01:41:35;98105.91;;;12.70;76.90
54592;BME280;40488;48.558;18.150;2022-09-29T01:44:14;98121.84;;;12.78;77.04
54592;BME280;40488;48.558;18.150;2022-09-29T01:46:51;98127.75;;;12.80;77.19
54592;BME280;40488;48.558;18.150;2022-09-29T01:49:22;98130.31;;;12.80;77.15
54592;BME280;40488;48.558;18.150;2022-09-29T01:52:00;98132.88;;;12.80;77.59
54592;BME280;40488;48.558;18.150;2022-09-29T01:54:35;98136.31;;;12.79;77.73
54592;BME280;40488;48.558;18.150;2022-09-29T01:57:09;98145.78;;;12.77;77.80
54592;BME280;40488;48.558;18.150;2022-09-29T01:59:44;98161.25;;;12.74;78.04
54592;BME280;40488;48.558;18.150;2022-09-29T02:02:18;98157.34;;;12.64;78.12
54592;BME280;40488;48.558;18.150;2022-09-29T02:04:53;98159.91;;;12.62;78.63
54592;BME280;40488;48.558;18.150;2022-09-29T02:07:28;98169.22;;;12.65;78.93
54592;BME280;40488;48.558;18.150;2022-09-29T02:10:03;98174.41;;;12.63;78.89
54592;BME280;40488;48.558;18.150;2022-09-29T02:12:37;98162.72;;;12.55;78.92
54592;BME280;40488;48.558;18.150;2022-09-29T02:15:08;98171.16;;;12.58;79.22
54592;BME280;40488;48.558;18.150;2022-09-29T02:17:42;98173.81;;;12.55;79.15
54592;BME280;40488;48.558;18.150;2022-09-29T02:20:13;98181.53;;;12.54;78.95
54592;BME280;40488;48.558;18.150;2022-09-29T02:22:43;98182.41;;;12.53;79.54
54592;BME280;40488;48.558;18.150;2022-09-29T02:25:15;98184.25;;;12.49;80.24
54592;BME280;40488;48.558;18.150;2022-09-29T02:27:46;98188.63;;;12.46;80.27
54592;BME280;40488;48.558;18.150;2022-09-29T02:30:17;98197.22;;;12.45;80.69
54592;BME280;40488;48.558;18.150;2022-09-29T02:32:47;98188.75;;;12.43;81.05
54592;BME280;40488;48.558;18.150;2022-09-29T02:35:15;98192.19;;;12.42;81.17
54592;BME280;40488;48.558;18.150;2022-09-29T02:37:56;98189.63;;;12.42;81.38
54592;BME280;40488;48.558;18.150;2022-09-29T02:40:38;98187.06;;;12.42;81.70
54592;BME280;40488;48.558;18.150;2022-09-29T02:43:30;98180.38;;;12.38;82.05
54592;BME280;40488;48.558;18.150;2022-09-29T02:46:12;98181.25;;;12.37;82.47
54592;BME280;40488;48.558;18.150;2022-09-29T02:49:03;98177.06;;;12.34;82.45
54592;BME280;40488;48.558;18.150;2022-09-29T02:51:39;98175.44;;;12.32;82.51
54592;BME280;40488;48.558;18.150;2022-09-29T02:54:21;98168.75;;;12.28;82.38
54592;BME280;40488;48.558;18.150;2022-09-29T02:56:57;98185.81;;;12.27;82.62
54592;BME280;40488;48.558;18.150;2022-09-29T02:59:34;98175.66;;;12.26;82.78
54592;BME280;40488;48.558;18.150;2022-09-29T03:02:05;98168.06;;;12.23;82.95
54592;BME280;40488;48.558;18.150;2022-09-29T03:04:33;98167.28;;;12.21;83.00
54592;BME280;40488;48.558;18.150;2022-09-29T03:07:02;98148.09;;;12.07;83.15
54592;BME280;40488;48.558;18.150;2022-09-29T03:09:32;98158.81;;;12.19;83.40
54592;BME280;40488;48.558;18.150;2022-09-29T03:12:01;98164.75;;;12.19;83.08
54592;BME280;40488;48.558;18.150;2022-09-29T03:14:29;98173.41;;;12.15;83.37
54592;BME280;40488;48.558;18.150;2022-09-29T03:16:58;98173.47;;;12.14;83.29
54592;BME280;40488;48.558;18.150;2022-09-29T03:19:27;98174.25;;;12.16;83.53
54592;BME280;40488;48.558;18.150;2022-09-29T03:21:55;98165.81;;;12.14;83.70
54592;BME280;40488;48.558;18.150;2022-09-29T03:24:24;98170.06;;;12.13;83.92
54592;BME280;40488;48.558;18.150;2022-09-29T03:26:55;98159.00;;;12.13;83.99
54592;BME280;40488;48.558;18.150;2022-09-29T03:29:23;98168.44;;;12.10;84.11
54592;BME280;40488;48.558;18.150;2022-09-29T03:31:52;98161.72;;;12.08;84.06
54592;BME280;40488;48.558;18.150;2022-09-29T03:34:21;98157.53;;;12.05;84.28
54592;BME280;40488;48.558;18.150;2022-09-29T03:36:50;98157.53;;;12.05;84.34
54592;BME280;40488;48.558;18.150;2022-09-29T03:39:18;98154.19;;;12.03;84.29
54592;BME280;40488;48.558;18.150;2022-09-29T03:41:47;98157.44;;;12.08;84.35
54592;BME280;40488;48.558;18.150;2022-09-29T03:44:18;98159.09;;;12.09;84.48
54592;BME280;40488;48.558;18.150;2022-09-29T03:46:46;98159.00;;;12.13;84.83
54592;BME280;40488;48.558;18.150;2022-09-29T03:49:15;98153.88;;;12.13;84.65
54592;BME280;40488;48.558;18.150;2022-09-29T03:51:44;98153.88;;;12.13;84.86
54592;BME280;40488;48.558;18.150;2022-09-29T03:54:13;98168.41;;;12.12;84.79
54592;BME280;40488;48.558;18.150;2022-09-29T03:56:41;98170.16;;;12.10;84.51
54592;BME280;40488;48.558;18.150;2022-09-29T03:59:10;98177.00;;;12.09;84.72
54592;BME280;40488;48.558;18.150;2022-09-29T04:01:42;98171.00;;;12.10;84.14
54592;BME280;40488;48.558;18.150;2022-09-29T04:04:11;98172.69;;;12.12;84.30
54592;BME280;40488;48.558;18.150;2022-09-29T04:06:40;98167.59;;;12.12;84.46
54592;BME280;40488;48.558;18.150;2022-09-29T04:09:09;98177.81;;;12.12;84.67
54592;BME280;40488;48.558;18.150;2022-09-29T04:11:38;98168.44;;;12.10;84.63
54592;BME280;40488;48.558;18.150;2022-09-29T04:14:06;98168.50;;;12.09;84.80
54592;BME280;40488;48.558;18.150;2022-09-29T04:16:35;98157.34;;;12.12;84.92
54592;BME280;40488;48.558;18.150;2022-09-29T04:19:05;98145.44;;;12.10;84.88
54592;BME280;40488;48.558;18.150;2022-09-29T04:21:34;98140.50;;;12.04;84.85
54592;BME280;40488;48.558;18.150;2022-09-29T04:24:02;98152.63;;;11.99;84.82
54592;BME280;40488;48.558;18.150;2022-09-29T04:26:31;98158.53;;;12.00;84.94
54592;BME280;40488;48.558;18.150;2022-09-29T04:29:00;98143.97;;;12.03;84.95
54592;BME280;40488;48.558;18.150;2022-09-29T04:31:29;98150.72;;;12.04;84.82
54592;BME280;40488;48.558;18.150;2022-09-29T04:33:57;98154.97;;;12.05;84.94
54592;BME280;40488;48.558;18.150;2022-09-29T04:36:28;98155.06;;;12.02;85.16
54592;BME280;40488;48.558;18.150;2022-09-29T04:38:56;98165.41;;;11.99;85.05
54592;BME280;40488;48.558;18.150;2022-09-29T04:41:25;98174.72;;;12.00;85.16
54592;BME280;40488;48.558;18.150;2022-09-29T04:43:54;98177.25;;;12.02;85.12
54592;BME280;40488;48.558;18.150;2022-09-29T04:46:22;98167.97;;;11.99;85.43
54592;BME280;40488;48.558;18.150;2022-09-29T04:48:51;98171.47;;;11.95;85.52
54592;BME280;40488;48.558;18.150;2022-09-29T04:51:19;98171.38;;;11.98;85.84
54592;BME280;40488;48.558;18.150;2022-09-29T04:53:50;98179.94;;;11.97;85.80
54592;BME280;40488;48.558;18.150;2022-09-29T04:56:20;98188.41;;;11.99;86.02
54592;BME280;40488;48.558;18.150;2022-09-29T04:58:48;98179.84;;;12.00;86.16
54592;BME280;40488;48.558;18.150;2022-09-29T05:01:17;98184.94;;;12.00;86.06
54592;BME280;40488;48.558;18.150;2022-09-29T05:03:46;98185.75;;;12.02;85.87
54592;BME280;40488;48.558;18.150;2022-09-29T05:06:15;98188.28;;;12.02;86.00
54592;BME280;40488;48.558;18.150;2022-09-29T05:08:43;98193.53;;;11.99;86.03
54592;BME280;40488;48.558;18.150;2022-09-29T05:11:13;98195.09;;;12.03;86.20
54592;BME280;40488;48.558;18.150;2022-09-29T05:13:42;98189.97;;;12.03;86.27
54592;BME280;40488;48.558;18.150;2022-09-29T05:16:11;98191.75;;;12.01;86.15
54592;BME280;40488;48.558;18.150;2022-09-29T05:18:40;98198.53;;;12.02;86.08
54592;BME280;40488;48.558;18.150;2022-09-29T05:21:08;98193.41;;;12.02;86.04
54592;BME280;40488;48.558;18.150;2022-09-29T05:23:56;98193.41;;;12.02;85.98
54592;BME280;40488;48.558;18.150;2022-09-29T05:26:26;98194.25;;;12.03;86.13
54592;BME280;40488;48.558;18.150;2022-09-29T05:28:55;98191.63;;;12.04;86.18
54592;BME280;40488;48.558;18.150;2022-09-29T05:31:24;98189.97;;;12.03;86.19
54592;BME280;40488;48.558;18.150;2022-09-29T05:33:54;98197.66;;;12.03;86.53
54592;BME280;40488;48.558;18.150;2022-09-29T05:36:23;98193.41;;;12.02;86.43
54592;BME280;40488;48.558;18.150;2022-09-29T05:38:52;98189.22;;;12.00;86.15
54592;BME280;40488;48.558;18.150;2022-09-29T05:41:22;98198.63;;;11.99;86.21
54592;BME280;40488;48.558;18.150;2022-09-29T05:43:53;98187.66;;;11.96;86.15
54592;BME280;40488;48.558;18.150;2022-09-29T05:46:22;98206.97;;;12.04;86.32
54592;BME280;40488;48.558;18.150;2022-09-29T05:48:51;98202.81;;;12.02;86.13
54592;BME280;40488;48.558;18.150;2022-09-29T05:51:21;98202.75;;;12.03;86.18
54592;BME280;40488;48.558;18.150;2022-09-29T05:53:50;98214.63;;;12.06;85.98
54592;BME280;40488;48.558;18.150;2022-09-29T05:56:20;98212.09;;;12.04;86.04
54592;BME280;40488;48.558;18.150;2022-09-29T05:58:52;98209.66;;;12.01;85.95
54592;BME280;40488;48.558;18.150;2022-09-29T06:01:23;98210.44;;;12.03;85.92
54592;BME280;40488;48.558;18.150;2022-09-29T06:03:53;98212.22;;;12.01;85.87
54592;BME280;40488;48.558;18.150;2022-09-29T06:06:24;98207.13;;;12.00;85.81
54592;BME280;40488;48.558;18.150;2022-09-29T06:08:55;98207.94;;;12.02;85.71
54592;BME280;40488;48.558;18.150;2022-09-29T06:11:26;98207.09;;;12.01;85.40
54592;BME280;40488;48.558;18.150;2022-09-29T06:13:57;98206.47;;;11.93;85.91
54592;BME280;40488;48.558;18.150;2022-09-29T06:16:28;98221.69;;;11.98;85.85
54592;BME280;40488;48.558;18.150;2022-09-29T06:18:58;98208.81;;;12.01;85.72
54592;BME280;40488;48.558;18.150;2022-09-29T06:21:28;98212.09;;;12.04;85.57
54592;BME280;40488;48.558;18.150;2022-09-29T06:23:58;98207.09;;;12.01;85.74
54592;BME280;40488;48.558;18.150;2022-09-29T06:26:27;98200.28;;;12.00;85.50
54592;BME280;40488;48.558;18.150;2022-09-29T06:28:57;98208.88;;;11.99;85.49
54592;BME280;40488;48.558;18.150;2022-09-29T06:31:27;98204.63;;;11.98;85.57
54592;BME280;40488;48.558;18.150;2022-09-29T06:33:57;98205.38;;;12.02;85.43
54592;BME280;40488;48.558;18.150;2022-09-29T06:36:29;98201.88;;;12.04;85.38
54592;BME280;40488;48.558;18.150;2022-09-29T06:39:11;98196.59;;;12.10;85.52
54592;BME280;40488;48.558;18.150;2022-09-29T06:41:40;98200.91;;;12.08;85.42
54592;BME280;40488;48.558;18.150;2022-09-29T06:44:12;98201.78;;;12.07;85.25
54592;BME280;40488;48.558;18.150;2022-09-29T06:46:41;98211.88;;;12.12;85.19
54592;BME280;40488;48.558;18.150;2022-09-29T06:49:10;98205.75;;;12.18;85.05
54592;BME280;40488;48.558;18.150;2022-09-29T06:51:40;98213.41;;;12.18;84.82
54592;BME280;40488;48.558;18.150;2022-09-29T06:54:13;98202.31;;;12.19;84.48
54592;BME280;40488;48.558;18.150;2022-09-29T06:56:45;98214.81;;;12.28;84.47
54592;BME280;40488;48.558;18.150;2022-09-29T06:59:16;98213.88;;;12.30;84.20
54592;BME280;40488;48.558;18.150;2022-09-29T07:01:45;98221.41;;;12.35;84.16
54592;BME280;40488;48.558;18.150;2022-09-29T07:04:19;98228.16;;;12.36;83.84
54592;BME280;40488;48.558;18.150;2022-09-29T07:06:48;98217.94;;;12.36;83.81
54592;BME280;40488;48.558;18.150;2022-09-29T07:09:17;98224.75;;;12.37;83.49
54592;BME280;40488;48.558;18.150;2022-09-29T07:11:48;98233.03;;;12.45;83.25
54592;BME280;40488;48.558;18.150;2022-09-29T07:14:21;98232.09;;;12.47;83.50
54592;BME280;40488;48.558;18.150;2022-09-29T07:16:52;98225.91;;;12.53;83.05
54592;BME280;40488;48.558;18.150;2022-09-29T07:19:21;98229.25;;;12.55;83.48
54592;BME280;40488;48.558;18.150;2022-09-29T07:21:49;98230.16;;;12.54;83.23
54592;BME280;40488;48.558;18.150;2022-09-29T07:24:18;98227.63;;;12.54;82.70
54592;BME280;40488;48.558;18.150;2022-09-29T07:26:48;98223.44;;;12.51;82.89
54592;BME280;40488;48.558;18.150;2022-09-29T07:29:16;98231.72;;;12.59;82.75
54592;BME280;40488;48.558;18.150;2022-09-29T07:31:47;98225.66;;;12.62;82.55
54592;BME280;40488;48.558;18.150;2022-09-29T07:34:19;98225.59;;;12.63;82.42
54592;BME280;40488;48.558;18.150;2022-09-29T07:36:48;98217.66;;;12.71;82.48
54592;BME280;40488;48.558;18.150;2022-09-29T07:39:19;98215.94;;;12.71;82.39
54592;BME280;40488;48.558;18.150;2022-09-29T07:41:48;98223.34;;;12.79;82.21
54592;BME280;40488;48.558;18.150;2022-09-29T07:44:18;98227.69;;;12.77;81.84
54592;BME280;40488;48.558;18.150;2022-09-29T07:46:49;98231.19;;;12.74;81.91
54592;BME280;40488;48.558;18.150;2022-09-29T07:49:17;98234.66;;;12.73;81.73
54592;BME280;40488;48.558;18.150;2022-09-29T07:51:46;98232.81;;;12.77;81.91
54592;BME280;40488;48.558;18.150;2022-09-29T07:54:15;98234.09;;;12.90;82.09
54592;BME280;40488;48.558;18.150;2022-09-29T07:56:44;98240.63;;;12.99;81.61
54592;BME280;40488;48.558;18.150;2022-09-29T07:59:12;98242.72;;;13.14;81.53
54592;BME280;40488;48.558;18.150;2022-09-29T08:01:41;98243.13;;;13.26;81.41
54592;BME280;40488;48.558;18.150;2022-09-29T08:04:11;98231.97;;;13.27;81.18
54592;BME280;40488;48.558;18.150;2022-09-29T08:06:39;98238.47;;;13.37;80.31
54592;BME280;40488;48.558;18.150;2022-09-29T08:09:09;98239.22;;;13.39;79.51
54592;BME280;40488;48.558;18.150;2022-09-29T08:11:39;98240.13;;;13.38;78.98
54592;BME280;40488;48.558;18.150;2022-09-29T08:14:10;98243.06;;;13.53;78.67
54592;BME280;40488;48.558;18.150;2022-09-29T08:16:38;98242.63;;;13.65;78.86
54592;BME280;40488;48.558;18.150;2022-09-29T08:19:07;98238.09;;;13.71;78.31
54592;BME280;40488;48.558;18.150;2022-09-29T08:21:37;98240.59;;;13.73;77.13
54592;BME280;40488;48.558;18.150;2022-09-29T08:24:06;98233.81;;;13.72;76.91
54592;BME280;40488;48.558;18.150;2022-09-29T08:26:36;98248.94;;;13.78;76.36
54592;BME280;40488;48.558;18.150;2022-09-29T08:29:11;98262.75;;;13.97;76.42
54592;BME280;40488;48.558;18.150;2022-09-29T08:31:43;98256.50;;;14.04;76.77
54592;BME280;40488;48.558;18.150;2022-09-29T08:34:13;98261.53;;;14.07;76.32
54592;BME280;40488;48.558;18.150;2022-09-29T08:36:44;98261.44;;;14.10;75.99
54592;BME280;40488;48.558;18.150;2022-09-29T08:39:12;98268.56;;;14.25;75.77
54592;BME280;40488;48.558;18.150;2022-09-29T08:41:48;98267.31;;;14.35;74.88
54592;BME280;40488;48.558;18.150;2022-09-29T08:44:22;98270.53;;;14.40;74.69
54592;BME280;40488;48.558;18.150;2022-09-29T08:47:15;98266.19;;;14.42;74.50
54592;BME280;40488;48.558;18.150;2022-09-29T08:49:48;98269.69;;;14.40;73.53
54592;BME280;40488;48.558;18.150;2022-09-29T08:52:25;98283.38;;;14.40;74.05
54592;BME280;40488;48.558;18.150;2022-09-29T08:55:20;98281.84;;;14.58;73.62
54592;BME280;40488;48.558;18.150;2022-09-29T08:57:55;98283.09;;;14.69;73.62
54592;BME280;40488;48.558;18.150;2022-09-29T09:00:32;98279.38;;;14.76;72.63
54592;BME280;40488;48.558;18.150;2022-09-29T09:03:13;98284.03;;;14.89;72.24
54592;BME280;40488;48.558;18.150;2022-09-29T09:09:02;98275.69;;;15.24;71.96
54592;BME280;40488;48.558;18.150;2022-09-29T09:11:46;98277.09;;;15.31;70.35
54592;BME280;40488;48.558;18.150;2022-09-29T09:14:33;98278.66;;;15.35;68.69
54592;BME280;40488;48.558;18.150;2022-09-29T09:17:18;98274.84;;;15.45;68.58
54592;BME280;40488;48.558;18.150;2022-09-29T09:20:03;98267.13;;;15.45;67.24
54592;BME280;40488;48.558;18.150;2022-09-29T09:22:47;98265.78;;;15.55;67.19
54592;BME280;40488;48.558;18.150;2022-09-29T09:25:28;98272.41;;;15.61;66.94
54592;BME280;40488;48.558;18.150;2022-09-29T09:28:04;98279.38;;;15.59;66.35
54592;BME280;40488;48.558;18.150;2022-09-29T09:30:39;98287.25;;;15.74;66.28
54592;BME280;40488;48.558;18.150;2022-09-29T09:33:19;98283.50;;;15.81;65.69
54592;BME280;40488;48.558;18.150;2022-09-29T09:36:00;98280.16;;;15.79;65.29
54592;BME280;40488;48.558;18.150;2022-09-29T09:38:41;98277.47;;;15.82;65.28
54592;BME280;40488;48.558;18.150;2022-09-29T09:41:16;98279.91;;;15.85;65.37
54592;BME280;40488;48.558;18.150;2022-09-29T09:43:48;98278.19;;;16.04;65.34
54592;BME280;40488;48.558;18.150;2022-09-29T09:46:22;98274.06;;;16.19;64.62
54592;BME280;40488;48.558;18.150;2022-09-29T09:49:04;98279.47;;;16.32;64.03
54592;BME280;40488;48.558;18.150;2022-09-29T09:51:45;98274.91;;;16.38;62.73
54592;BME280;40488;48.558;18.150;2022-09-29T09:54:26;98277.25;;;16.43;62.26
54592;BME280;40488;48.558;18.150;2022-09-29T09:57:21;98269.91;;;16.17;62.28
54592;BME280;40488;48.558;18.150;2022-09-29T10:00:03;98288.53;;;16.22;62.36
54592;BME280;40488;48.558;18.150;2022-09-29T10:02:43;98289.94;;;16.29;61.83
54592;BME280;40488;48.558;18.150;2022-09-29T10:05:15;98288.16;;;16.29;61.62
54592;BME280;40488;48.558;18.150;2022-09-29T10:07:45;98288.25;;;16.28;60.74
54592;BME280;40488;48.558;18.150;2022-09-29T10:10:17;98292.56;;;16.46;60.14
54592;BME280;40488;48.558;18.150;2022-09-29T10:12:55;98287.91;;;16.54;58.80
54592;BME280;40488;48.558;18.150;2022-09-29T10:15:30;98294.53;;;16.41;56.72
54592;BME280;40488;48.558;18.150;2022-09-29T10:18:04;98283.94;;;16.28;56.84
54592;BME280;40488;48.558;18.150;2022-09-29T10:20:36;98288.31;;;16.45;56.95
54592;BME280;40488;48.558;18.150;2022-09-29T10:23:24;98296.44;;;16.73;57.27
54592;BME280;40488;48.558;18.150;2022-09-29T10:25:57;98283.88;;;16.84;55.99
54592;BME280;40488;48.558;18.150;2022-09-29T10:28:38;98272.75;;;16.84;55.08
54592;BME280;40488;48.558;18.150;2022-09-29T10:31:17;98281.16;;;17.04;55.24
54592;BME280;40488;48.558;18.150;2022-09-29T10:33:49;98267.44;;;17.21;54.99
54592;BME280;40488;48.558;18.150;2022-09-29T10:36:18;98262.81;;;17.27;55.18
54592;BME280;40488;48.558;18.150;2022-09-29T10:38:50;98283.28;;;17.30;54.75
54592;BME280;40488;48.558;18.150;2022-09-29T10:41:19;98274.78;;;17.28;54.45
54592;BME280;40488;48.558;18.150;2022-09-29T10:43:50;98288.75;;;17.24;54.96
54592;BME280;40488;48.558;18.150;2022-09-29T10:46:47;98287.22;;;17.20;54.77
54592;BME280;40488;48.558;18.150;2022-09-29T10:49:18;98273.28;;;17.24;54.41
54592;BME280;40488;48.558;18.150;2022-09-29T10:51:59;98273.94;;;17.28;54.74
54592;BME280;40488;48.558;18.150;2022-09-29T10:54:31;98288.00;;;17.22;54.16
54592;BME280;40488;48.558;18.150;2022-09-29T10:57:10;98285.84;;;17.13;54.02
54592;BME280;40488;48.558;18.150;2022-09-29T10:59:52;98275.84;;;17.07;54.04
54592;BME280;40488;48.558;18.150;2022-09-29T11:02:25;98274.34;;;17.03;54.56
54592;BME280;40488;48.558;18.150;2022-09-29T11:04:58;98277.69;;;17.05;54.77
54592;BME280;40488;48.558;18.150;2022-09-29T11:07:28;98284.94;;;16.97;53.95
54592;BME280;40488;48.558;18.150;2022-09-29T11:09:58;98283.13;;;16.99;53.54
54592;BME280;40488;48.558;18.150;2022-09-29T11:12:30;98283.88;;;17.01;53.50
54592;BME280;40488;48.558;18.150;2022-09-29T11:15:01;98287.84;;;17.08;52.65
54592;BME280;40488;48.558;18.150;2022-09-29T11:17:36;98285.84;;;17.13;51.57
54592;BME280;40488;48.558;18.150;2022-09-29T11:20:10;98278.59;;;17.21;51.16
54592;BME280;40488;48.558;18.150;2022-09-29T11:22:55;98276.28;;;17.32;50.85
54592;BME280;40488;48.558;18.150;2022-09-29T11:28:44;98285.09;;;17.28;49.51
54592;BME280;40488;48.558;18.150;2022-09-29T11:37:08;98298.75;;;17.30;51.89
54592;BME280;40488;48.558;18.150;2022-09-29T11:39:44;98292.22;;;17.40;52.65
54592;BME280;40488;48.558;18.150;2022-09-29T11:42:29;98297.28;;;17.42;52.56
54592;BME280;40488;48.558;18.150;2022-09-29T11:45:01;98293.53;;;17.49;52.49
54592;BME280;40488;48.558;18.150;2022-09-29T11:47:50;98294.72;;;17.59;52.22
54592;BME280;40488;48.558;18.150;2022-09-29T11:50:35;98297.75;;;17.67;52.21
54592;BME280;40488;48.558;18.150;2022-09-29T11:53:22;98284.56;;;17.89;52.37
54592;BME280;40488;48.558;18.150;2022-09-29T11:56:13;98277.19;;;18.14;51.88
54592;BME280;40488;48.558;18.150;2022-09-29T11:58:50;98285.03;;;18.13;51.68
54592;BME280;40488;48.558;18.150;2022-09-29T12:01:29;98280.06;;;17.92;51.55
54592;BME280;40488;48.558;18.150;2022-09-29T12:04:14;98280.94;;;17.76;51.31
54592;BME280;40488;48.558;18.150;2022-09-29T12:06:52;98280.69;;;17.65;52.05
54592;BME280;40488;48.558;18.150;2022-09-29T12:09:35;98281.31;;;17.53;52.27
54592;BME280;40488;48.558;18.150;2022-09-29T12:12:12;98288.22;;;17.52;52.72
54592;BME280;40488;48.558;18.150;2022-09-29T12:15:02;98299.94;;;17.75;52.75
54592;BME280;40488;48.558;18.150;2022-09-29T12:17:38;98298.19;;;18.08;52.32
54592;BME280;40488;48.558;18.150;2022-09-29T12:20:18;98308.53;;;18.39;51.17
54592;BME280;40488;48.558;18.150;2022-09-29T12:22:50;98311.06;;;18.56;50.09
54592;BME280;40488;48.558;18.150;2022-09-29T12:25:24;98306.47;;;18.61;49.28
54592;BME280;40488;48.558;18.150;2022-09-29T12:27:57;98311.47;;;18.64;48.98
54592;BME280;40488;48.558;18.150;2022-09-29T12:30:29;98308.34;;;18.89;49.00
54592;BME280;40488;48.558;18.150;2022-09-29T12:33:05;98310.38;;;18.84;48.26
54592;BME280;40488;48.558;18.150;2022-09-29T12:35:44;98312.53;;;18.92;48.50
54592;BME280;40488;48.558;18.150;2022-09-29T12:38:20;98315.38;;;18.71;48.57
54592;BME280;40488;48.558;18.150;2022-09-29T12:41:02;98312.47;;;18.46;48.71
54592;BME280;40488;48.558;18.150;2022-09-29T12:43:36;98309.03;;;18.30;50.07
54592;BME280;40488;48.558;18.150;2022-09-29T12:46:16;98302.94;;;18.16;50.88
54592;BME280;40488;48.558;18.150;2022-09-29T12:48:51;98305.03;;;18.09;50.69
54592;BME280;40488;48.558;18.150;2022-09-29T12:51:28;98295.16;;;18.00;50.04
54592;BME280;40488;48.558;18.150;2022-09-29T12:54:08;98306.66;;;17.94;50.05
54592;BME280;40488;48.558;18.150;2022-09-29T12:56:45;98314.66;;;17.90;50.41
54592;BME280;40488;48.558;18.150;2022-09-29T12:59:28;98316.44;;;17.88;50.62
54592;BME280;40488;48.558;18.150;2022-09-29T13:05:19;98324.06;;;17.74;50.74
54592;BME280;40488;48.558;18.150;2022-09-29T13:08:15;98324.41;;;17.68;51.12
54592;BME280;40488;48.558;18.150;2022-09-29T13:13:49;98337.19;;;17.54;52.40
54592;BME280;40488;48.558;18.150;2022-09-29T13:16:36;98342.59;;;17.48;52.64
54592;BME280;40488;48.558;18.150;2022-09-29T13:19:23;98334.41;;;17.39;52.85
54592;BME280;40488;48.558;18.150;2022-09-29T13:25:22;98338.41;;;17.11;53.62
54592;BME280;40488;48.558;18.150;2022-09-29T13:27:56;98333.63;;;17.03;54.20
54592;BME280;40488;48.558;18.150;2022-09-29T13:30:27;98326.88;;;17.01;53.70
54592;BME280;40488;48.558;18.150;2022-09-29T13:33:01;98324.38;;;16.99;53.86
54592;BME280;40488;48.558;18.150;2022-09-29T13:35:36;98320.91;;;17.00;54.17
54592;BME280;40488;48.558;18.150;2022-09-29T13:38:07;98322.72;;;16.98;54.29
54592;BME280;40488;48.558;18.150;2022-09-29T13:41:08;98316.00;;;16.94;53.73
54592;BME280;40488;48.558;18.150;2022-09-29T13:43:42;98318.69;;;16.93;53.87
54592;BME280;40488;48.558;18.150;2022-09-29T13:46:36;98306.69;;;16.92;54.36
54592;BME280;40488;48.558;18.150;2022-09-29T13:49:15;98320.41;;;16.92;54.32